createdAt,value
2019-05-29T00:04:41.573Z,3.63
2019-05-29T00:09:44.864Z,6.60
2019-05-29T00:14:48.381Z,4.90
2019-05-29T00:19:53.190Z,3.77
2019-05-29T00:24:56.476Z,3.47
2019-05-29T00:29:59.993Z,5.70
2019-05-29T00:35:04.313Z,7.07
2019-05-29T00:40:08.944Z,3.77
2019-05-29T00:45:13.434Z,3.40
2019-05-29T00:50:16.974Z,6.47
2019-05-29T00:55:20.243Z,4.13
2019-05-29T01:00:23.841Z,4.17
2019-05-29T01:05:27.121Z,4.83
2019-05-29T01:10:30.399Z,4.80
2019-05-29T01:15:33.674Z,4.93
2019-05-29T01:20:36.951Z,3.57
2019-05-29T01:25:40.463Z,5.27
2019-05-29T01:30:51.568Z,2.70
2019-05-29T01:35:54.994Z,5.30
2019-05-29T01:40:58.268Z,4.53
2019-05-29T01:46:01.791Z,3.43
2019-05-29T01:51:05.063Z,5.30
2019-05-29T01:56:08.577Z,7.83
2019-05-29T02:01:11.862Z,5.57
2019-05-29T02:06:15.848Z,6.93
2019-05-29T02:11:19.434Z,5.57
2019-05-29T02:16:22.948Z,6.97
2019-05-29T02:21:26.464Z,8.90
2019-05-29T02:26:29.989Z,8.00
2019-05-29T02:31:33.277Z,5.37
2019-05-29T02:36:36.794Z,6.87
2019-05-29T02:41:40.310Z,7.13
2019-05-29T02:46:45.227Z,4.70
2019-05-29T02:51:48.505Z,5.30
2019-05-29T02:56:51.783Z,4.50
2019-05-29T03:01:55.299Z,6.87
2019-05-29T03:06:58.651Z,7.60
2019-05-29T03:12:02.177Z,5.10
2019-05-29T03:17:05.709Z,4.90
2019-05-29T03:22:09.235Z,6.50
2019-05-29T03:27:12.511Z,6.13
2019-05-29T03:32:15.803Z,6.90
2019-05-29T03:37:19.069Z,5.43
2019-05-29T03:42:22.820Z,5.87
2019-05-29T03:47:26.926Z,5.73
2019-05-29T03:52:32.518Z,5.73
2019-05-29T03:57:35.872Z,7.70
2019-05-29T04:02:39.260Z,5.83
2019-05-29T04:07:42.539Z,7.60
2019-05-29T04:12:49.043Z,13.67
2019-05-29T04:17:53.085Z,7.67
2019-05-29T04:22:56.647Z,8.03
2019-05-29T04:28:00.990Z,8.77
2019-05-29T04:33:04.293Z,8.47
2019-05-29T04:38:07.591Z,7.23
2019-05-29T04:43:10.873Z,8.30
2019-05-29T04:48:14.166Z,5.77
2019-05-29T04:53:17.471Z,8.03
2019-05-29T04:58:20.763Z,6.07
2019-05-29T05:03:28.967Z,8.30
2019-05-29T05:08:33.343Z,5.93
2019-05-29T05:13:37.726Z,7.37
2019-05-29T05:18:41.420Z,8.63
2019-05-29T05:23:45.044Z,7.67
2019-05-29T05:28:48.386Z,9.23
2019-05-29T05:33:51.973Z,8.47
2019-05-29T05:38:55.263Z,8.77
2019-05-29T05:43:58.559Z,10.90
2019-05-29T05:49:01.852Z,10.30
2019-05-29T05:54:05.767Z,8.20
2019-05-29T05:59:09.055Z,7.20
2019-05-29T06:04:12.639Z,5.60
2019-05-29T06:09:15.946Z,5.83
2019-05-29T06:14:19.422Z,6.33
2019-05-29T06:19:22.704Z,9.60
2019-05-29T06:24:26.048Z,6.83
2019-05-29T06:29:29.403Z,9.27
2019-05-29T06:34:33.510Z,4.93
2019-05-29T06:39:37.673Z,4.47
2019-05-29T06:44:43.662Z,3.90
2019-05-29T06:49:46.775Z,7.53
2019-05-29T06:54:50.082Z,4.93
2019-05-29T06:59:53.602Z,3.13
2019-05-29T07:04:57.229Z,3.03
2019-05-29T07:10:00.848Z,5.70
2019-05-29T07:15:06.548Z,4.83
2019-05-29T07:20:10.576Z,4.83
2019-05-29T07:25:14.180Z,2.17
2019-05-29T07:30:18.970Z,3.23
2019-05-29T07:35:22.278Z,4.27
2019-05-29T07:40:25.838Z,1.63
2019-05-29T07:45:29.133Z,2.40
2019-05-29T07:50:32.825Z,2.80
2019-05-29T07:55:36.363Z,1.67
2019-05-29T08:01:00.986Z,3.57
2019-05-29T08:05:47.748Z,6.03
2019-05-29T08:10:49.935Z,1.60
2019-05-29T08:16:02.344Z,3.77
2019-05-29T08:20:58.469Z,2.03
2019-05-29T08:26:01.772Z,2.03
2019-05-29T08:31:05.064Z,3.77
2019-05-29T08:36:08.606Z,2.53
2019-05-29T08:41:11.894Z,3.10
2019-05-29T08:46:15.280Z,3.77
2019-05-29T08:51:18.580Z,2.10
2019-05-29T08:56:22.108Z,2.70
2019-05-29T09:01:25.414Z,3.23
2019-05-29T09:06:28.683Z,2.93
2019-05-29T09:11:32.372Z,3.73
2019-05-29T09:16:35.659Z,2.77
2019-05-29T09:21:39.028Z,1.40
2019-05-29T09:26:42.581Z,1.97
2019-05-29T09:31:45.865Z,1.23
2019-05-29T09:36:49.178Z,2.30
2019-05-29T09:41:52.725Z,2.63
2019-05-29T09:46:56.027Z,1.73
2019-05-29T09:51:59.949Z,2.67
2019-05-29T09:57:03.197Z,3.97
2019-05-29T10:02:08.846Z,3.27
2019-05-29T10:07:11.617Z,1.13
2019-05-29T10:12:15.181Z,1.00
2019-05-29T10:17:18.675Z,2.63
2019-05-29T10:22:22.207Z,1.77
2019-05-29T10:27:25.534Z,4.00
2019-05-29T10:32:29.571Z,0.73
2019-05-29T10:37:33.756Z,1.50
2019-05-29T10:42:40.035Z,1.53
2019-05-29T10:47:43.346Z,0.47
2019-05-29T10:52:47.715Z,0.50
2019-05-29T10:57:53.381Z,1.90
2019-05-29T11:02:57.748Z,1.90
2019-05-29T11:08:01.355Z,1.70
2019-05-29T11:13:04.719Z,0.77
2019-05-29T11:18:08.033Z,3.23
2019-05-29T11:23:11.312Z,1.33
2019-05-29T11:28:14.592Z,0.87
2019-05-29T11:33:17.876Z,1.80
2019-05-29T11:38:21.402Z,0.50
2019-05-29T11:43:24.691Z,0.93
2019-05-29T11:48:28.225Z,2.00
2019-05-29T11:53:31.763Z,2.20
2019-05-29T11:58:35.059Z,0.97
2019-05-29T12:04:04.060Z,1.10
2019-05-29T12:08:43.697Z,4.90
2019-05-29T12:13:47.206Z,1.17
2019-05-29T12:18:51.521Z,4.00
2019-05-29T12:23:56.126Z,2.67
2019-05-29T12:29:08.391Z,10.40
2019-05-29T12:34:16.402Z,4.13
2019-05-29T12:39:10.078Z,2.10
2019-05-29T12:44:17.551Z,1.77
2019-05-29T12:49:21.145Z,2.40
2019-05-29T12:54:24.428Z,1.53
2019-05-29T12:59:27.984Z,1.50
2019-05-29T13:04:31.266Z,1.60
2019-05-29T13:09:34.578Z,2.50
2019-05-29T13:14:38.160Z,1.47
2019-05-29T13:19:43.886Z,2.53
2019-05-29T13:24:46.681Z,1.00
2019-05-29T13:29:49.954Z,4.83
2019-05-29T13:34:53.239Z,2.07
2019-05-29T13:39:56.525Z,4.73
2019-05-29T13:45:06.010Z,2.00
2019-05-29T13:50:12.391Z,1.47
2019-05-29T13:55:14.580Z,0.70
2019-05-29T14:00:33.144Z,0.30
2019-05-29T14:05:23.960Z,2.97
2019-05-29T14:10:27.482Z,2.60
2019-05-29T14:15:30.758Z,1.07
2019-05-29T14:20:34.041Z,2.87
2019-05-29T14:25:37.325Z,1.67
2019-05-29T14:30:40.633Z,0.30
2019-05-29T14:35:44.158Z,1.43
2019-05-29T14:40:47.687Z,0.60
2019-05-29T14:45:51.031Z,0.70
2019-05-29T14:50:54.320Z,2.30
2019-05-29T14:55:58.030Z,0.60
2019-05-29T15:01:01.319Z,1.53
2019-05-29T15:06:07.515Z,0.60
2019-05-29T15:11:12.071Z,1.57
2019-05-29T15:16:15.449Z,0.37
2019-05-29T15:21:18.984Z,2.10
2019-05-29T15:26:22.527Z,0.80
2019-05-29T15:31:25.827Z,0.70
2019-05-29T15:36:29.363Z,3.33
2019-05-29T15:41:32.887Z,1.93
2019-05-29T15:46:36.429Z,1.00
2019-05-29T15:51:39.753Z,2.20
2019-05-29T15:56:43.034Z,2.60
2019-05-29T16:01:45.693Z,1.70
2019-05-29T16:06:49.452Z,2.40
2019-05-29T16:11:52.753Z,0.47
2019-05-29T16:16:56.080Z,1.43
2019-05-29T16:21:59.605Z,1.07
2019-05-29T16:27:08.574Z,0.80
2019-05-29T16:32:07.920Z,1.23
2019-05-29T16:37:11.459Z,1.20
2019-05-29T16:42:15.843Z,2.63
2019-05-29T16:47:20.523Z,0.53
2019-05-29T16:52:23.934Z,1.80
2019-05-29T16:57:27.245Z,2.90
2019-05-29T17:02:30.540Z,4.83
2019-05-29T17:07:34.132Z,1.90
2019-05-29T17:12:37.755Z,1.03
2019-05-29T17:17:41.231Z,1.37
2019-05-29T17:22:44.520Z,1.00
2019-05-29T17:27:47.835Z,1.00
2019-05-29T17:32:51.373Z,3.47
2019-05-29T17:37:55.332Z,1.13
2019-05-29T17:42:58.871Z,1.87
2019-05-29T17:48:02.152Z,1.33
2019-05-29T17:53:05.794Z,0.60
2019-05-29T17:58:09.363Z,2.40
2019-05-29T18:03:12.715Z,2.13
2019-05-29T18:08:16.620Z,2.47
2019-05-29T18:13:21.356Z,2.63
2019-05-29T18:18:25.712Z,3.10
2019-05-29T18:23:29.025Z,1.23
2019-05-29T18:28:32.559Z,1.27
2019-05-29T18:33:36.114Z,2.43
2019-05-29T18:38:39.735Z,1.27
2019-05-29T18:43:43.098Z,0.80
2019-05-29T18:48:52.535Z,1.10
2019-05-29T18:53:58.133Z,1.07
2019-05-29T18:59:03.713Z,0.50
2019-05-29T19:04:12.711Z,0.70
2019-05-29T19:09:15.634Z,1.63
2019-05-29T19:14:21.670Z,1.83
2019-05-29T19:19:24.226Z,1.53
2019-05-29T19:24:28.593Z,0.77
2019-05-29T19:29:37.690Z,1.03
2019-05-29T19:34:45.051Z,1.93
2019-05-29T19:39:55.558Z,2.03
2019-05-29T19:44:58.772Z,1.90
2019-05-29T19:50:05.198Z,1.77
2019-05-29T19:55:14.647Z,0.90
2019-05-29T20:00:18.279Z,4.27
2019-05-29T20:05:26.724Z,4.60
2019-05-29T20:10:31.675Z,6.73
2019-05-29T20:15:43.306Z,6.37
2019-05-29T20:20:46.560Z,3.40
2019-05-29T20:25:53.322Z,3.53
2019-05-29T20:31:01.371Z,2.73
2019-05-29T20:36:06.435Z,1.03
2019-05-29T20:41:09.980Z,2.43
2019-05-29T20:46:15.794Z,3.00
2019-05-29T20:51:18.738Z,1.27
2019-05-29T20:56:22.259Z,1.93
2019-05-29T21:01:25.775Z,1.80
2019-05-29T21:06:29.056Z,1.30
2019-05-29T21:11:33.314Z,1.97
2019-05-29T21:16:37.622Z,1.80
2019-05-29T21:21:40.933Z,3.30
2019-05-29T21:26:45.187Z,5.37
2019-05-29T21:31:50.288Z,1.80
2019-05-29T21:36:53.584Z,4.87
2019-05-29T21:41:57.135Z,5.57
2019-05-29T21:47:00.426Z,2.67
2019-05-29T21:52:04.040Z,1.63
2019-05-29T21:57:07.319Z,3.43
2019-05-29T22:02:10.872Z,1.67
2019-05-29T22:07:14.403Z,1.90
2019-05-29T22:12:17.755Z,3.10
2019-05-29T22:17:21.034Z,3.73
2019-05-29T22:22:24.394Z,3.00
2019-05-29T22:27:27.911Z,1.20
2019-05-29T22:32:31.188Z,1.73
2019-05-29T22:37:34.704Z,2.37
2019-05-29T22:42:38.002Z,3.00
2019-05-29T22:47:41.274Z,1.93
2019-05-29T22:52:44.553Z,1.67
2019-05-29T22:57:48.098Z,2.23
2019-05-29T23:02:51.891Z,1.47
2019-05-29T23:07:56.108Z,1.40
2019-05-29T23:13:02.538Z,4.77
2019-05-29T23:18:04.410Z,3.67
2019-05-29T23:23:07.768Z,1.70
2019-05-29T23:28:12.369Z,1.83
2019-05-29T23:33:15.807Z,1.60
2019-05-29T23:38:19.970Z,4.00
2019-05-29T23:43:23.570Z,1.30
2019-05-29T23:48:30.078Z,1.97
2019-05-29T23:53:33.361Z,3.83
2019-05-29T23:58:36.906Z,5.67
